Orsa Maggiore — IAOM — position and weather

sailwx.info

Track history (hours):
 
Tides and Currents Weather Stations Pressure Air Temp Water Temp Dewpoint Dewpoint Depression Visibility Wind Speed Wind Dir Waves Ship Positions

Orsa Maggiore

Last reported at 2017-Dec-04 10:30 UTC. Time now 2018-Jan-18 03:56 UTC.
Position N 43°47' E 010°07'.
Warning: this ship's position is 44 days out of date.

Length 28 m.

Type: Sailing vessel. MMSI: 247938000.

Date/timePositionNaut miles runAvg speedWind from/ knotsBaromVisibWave heightAir tempDewpointWater temp
2017-Dec-04 10:30N 43°47' E 010°07'5 9.1
2017-Dec-04 10:00N 43°43' E 010°11'5 9.0
2017-Dec-04 09:30N 43°39' E 010°13'5 8.8
2017-Dec-04 08:59N 43°35' E 010°15'3 5.5
2017-Dec-04 08:30N 43°33' E 010°17'0 0.7
2017-Dec-04 07:52N 43°33' E 010°18'0 0.0
2017-Dec-02 11:22N 43°33' E 010°18'0 0.0
2017-Dec-02 11:00N 43°33' E 010°18'1 1.9
2017-Dec-02 10:27N 43°32' E 010°18'0 0.3
2017-Dec-02 10:00N 43°32' E 010°18'1 1.0
2017-Dec-02 09:30N 43°31' E 010°18'1 1.5
2017-Dec-02 09:00N 43°32' E 010°17'1 2.3
2017-Dec-02 08:30N 43°33' E 010°18'0 0.0
2017-Dec-01 15:10N 43°33' E 010°18'0 0.0
2017-Dec-01 14:58N 43°33' E 010°18'1 1.5
2017-Dec-01 14:30N 43°32' E 010°17'3 5.3
2017-Dec-01 14:00N 43°35' E 010°15'5 8.4
2017-Dec-01 13:27N 43°39' E 010°12'4 8.4
2017-Dec-01 13:00N 43°41' E 010°08'4 8.7
2017-Dec-01 12:30N 43°45' E 010°05'4 8.9
2017-Dec-01 12:00N 43°49' E 010°02'4 8.7
2017-Dec-01 11:30N 43°53' E 009°59'4 8.3
2017-Dec-01 11:00N 43°57' E 009°57'4 7.7
2017-Dec-01 10:30N 44°00' E 009°55'4 7.5
2017-Dec-01 09:59N 44°04' E 009°52'2 5.0
2017-Dec-01 09:30N 44°05' E 009°50'1 1.7
2017-Dec-01 08:57N 44°06' E 009°49'  
Track history (hours):
 
Tides and Currents Weather Stations Pressure Air Temp Water Temp Dewpoint Dewpoint Depression Visibility Wind Speed Wind Dir Waves Ship Positions

Orsa Maggiore

Last reported at 2017-Dec-04 10:30 UTC. Time now 2018-Jan-18 03:56 UTC.
Position N 43°47' E 010°07'.
Warning: this ship's position is 44 days out of date.

Length 28 m.

Type: Sailing vessel. MMSI: 247938000.

Date/timePositionNaut miles runAvg speedWind from/ knotsBaromVisibWave heightAir tempDewpointWater temp
2017-Dec-04 10:30N 43°47' E 010°07'5 9.1
2017-Dec-04 10:00N 43°43' E 010°11'5 9.0
2017-Dec-04 09:30N 43°39' E 010°13'5 8.8
2017-Dec-04 08:59N 43°35' E 010°15'3 5.5
2017-Dec-04 08:30N 43°33' E 010°17'0 0.7
2017-Dec-04 07:52N 43°33' E 010°18'0 0.0
2017-Dec-02 11:22N 43°33' E 010°18'0 0.0
2017-Dec-02 11:00N 43°33' E 010°18'1 1.9
2017-Dec-02 10:27N 43°32' E 010°18'0 0.3
2017-Dec-02 10:00N 43°32' E 010°18'1 1.0
2017-Dec-02 09:30N 43°31' E 010°18'1 1.5
2017-Dec-02 09:00N 43°32' E 010°17'1 2.3
2017-Dec-02 08:30N 43°33' E 010°18'0 0.0
2017-Dec-01 15:10N 43°33' E 010°18'0 0.0
2017-Dec-01 14:58N 43°33' E 010°18'1 1.5
2017-Dec-01 14:30N 43°32' E 010°17'3 5.3
2017-Dec-01 14:00N 43°35' E 010°15'5 8.4
2017-Dec-01 13:27N 43°39' E 010°12'4 8.4
2017-Dec-01 13:00N 43°41' E 010°08'4 8.7
2017-Dec-01 12:30N 43°45' E 010°05'4 8.9
2017-Dec-01 12:00N 43°49' E 010°02'4 8.7
2017-Dec-01 11:30N 43°53' E 009°59'4 8.3
2017-Dec-01 11:00N 43°57' E 009°57'4 7.7
2017-Dec-01 10:30N 44°00' E 009°55'4 7.5
2017-Dec-01 09:59N 44°04' E 009°52'2 5.0
2017-Dec-01 09:30N 44°05' E 009°50'1 1.7
2017-Dec-01 08:57N 44°06' E 009°49'  

Dump ship's entire track history